Time;durP1;ratioP1;P1;durP2;ratioP2;P2;SDS_P1;SDS_P2;PMS_P1;PMS_P2;Temp;Humidity;BMP_temperature;BMP_pressure;BME280_temperature;BME280_humidity;BME280_pressure;Samples;Min_cycle;Max_cycle;Signal;HPM_P1;HPM_P2
2022/06/10 00:01:36;;;;;;;;;7.25;4.25;;;;;20.84;52.46;101872.47;5072729;28;45521;-63
2022/06/10 00:04:02;;;;;;;;;5.00;3.00;;;;;20.84;52.42;101877.81;5068241;28;45521;-63
2022/06/10 00:06:27;;;;;;;;;6.25;4.25;;;;;20.83;52.25;101873.44;5071957;28;45239;-64
2022/06/10 00:08:53;;;;;;;;;6.00;5.00;;;;;20.83;52.26;101870.75;5072064;28;45308;-63
2022/06/10 00:11:18;;;;;;;;;10.50;5.25;;;;;20.81;52.05;101870.06;5071995;28;45538;-63
2022/06/10 00:13:46;;;;;;;;;3.25;3.25;;;;;20.80;52.56;101865.69;5070374;28;45490;-62
2022/06/10 00:16:13;;;;;;;;;6.75;4.25;;;;;20.81;52.17;101870.06;5070011;28;45971;-62
2022/06/10 00:18:40;;;;;;;;;7.75;5.00;;;;;20.83;52.48;101869.91;5072743;27;45405;-63
2022/06/10 00:21:08;;;;;;;;;5.00;5.00;;;;;20.83;52.25;101869.91;5071665;28;45380;-63
2022/06/10 00:23:33;;;;;;;;;6.50;5.00;;;;;20.83;52.58;101869.91;5071285;28;45479;-62
2022/06/10 00:25:59;;;;;;;;;4.00;3.00;;;;;20.82;52.47;101873.56;5070321;27;45482;-65
2022/06/10 00:28:24;;;;;;;;;8.00;5.00;;;;;20.80;52.76;101867.50;5071182;28;45437;-62
2022/06/10 00:30:50;;;;;;;;;4.75;4.00;;;;;20.79;52.33;101868.50;5068941;28;45532;-64
2022/06/10 00:33:16;;;;;;;;;5.25;3.50;;;;;20.77;52.48;101863.25;5067735;28;45421;-64
2022/06/10 00:35:42;;;;;;;;;7.25;4.00;;;;;20.77;52.42;101857.03;5071781;28;45287;-64
2022/06/10 00:38:08;;;;;;;;;9.75;5.00;;;;;20.76;52.77;101858.00;5070771;28;45456;-64
2022/06/10 00:40:39;;;;;;;;;5.00;4.75;;;;;20.77;52.80;101865.91;5070235;28;45311;-64
2022/06/10 00:43:05;;;;;;;;;4.25;3.00;;;;;20.78;52.75;101861.44;5068301;28;45313;-64
2022/06/10 00:45:59;;;;;;;;;6.00;3.50;;;;;20.77;52.63;101862.38;5064092;28;45398;-64
2022/06/10 00:48:44;;;;;;;;;4.50;3.75;;;;;20.77;52.74;101865.06;5061826;28;45368;-64
2022/06/10 00:51:44;;;;;;;;;5.00;3.25;;;;;20.75;52.61;101862.53;5061932;28;45330;-64
2022/06/10 00:54:18;;;;;;;;;6.00;4.75;;;;;20.75;52.95;101857.16;5052685;28;45468;-64
2022/06/10 00:56:52;;;;;;;;;4.75;3.75;;;;;20.74;52.74;101851.94;5061340;28;46351;-64
2022/06/10 00:59:27;;;;;;;;;3.00;3.00;;;;;20.73;52.89;101847.56;5061413;28;45464;-64
2022/06/10 01:01:56;;;;;;;;;3.00;3.00;;;;;20.73;52.90;101847.56;5061311;28;45340;-64
2022/06/10 01:04:23;;;;;;;;;6.50;4.50;;;;;20.72;52.98;101852.09;5061861;28;45485;-64
2022/06/10 01:06:49;;;;;;;;;3.50;3.50;;;;;20.73;52.67;101836.88;5061147;28;45306;-64
2022/06/10 01:09:15;;;;;;;;;3.25;3.25;;;;;20.72;53.01;101843.19;5061448;28;45406;-64
2022/06/10 01:11:43;;;;;;;;;6.00;4.00;;;;;20.73;52.94;101850.25;5061256;28;45488;-64
2022/06/10 01:14:18;;;;;;;;;5.50;2.75;;;;;20.71;52.69;101846.88;5061354;28;45305;-64
2022/06/10 01:17:09;;;;;;;;;5.50;5.00;;;;;20.70;52.64;101845.16;5061356;28;45352;-64
2022/06/10 01:19:59;;;;;;;;;5.00;4.00;;;;;20.69;52.83;101844.28;5060121;28;45347;-64
2022/06/10 01:23:06;;;;;;;;;3.25;3.00;;;;;20.69;52.98;101852.31;5061383;28;45367;-64
2022/06/10 01:25:49;;;;;;;;;4.00;3.00;;;;;20.67;52.80;101850.75;5038989;28;45802;-64
2022/06/10 01:28:32;;;;;;;;;5.50;3.75;;;;;20.68;53.01;101855.13;5058673;28;46124;-64
2022/06/10 01:31:04;;;;;;;;;5.00;4.75;;;;;20.68;52.83;101844.44;5060989;28;45297;-64
2022/06/10 01:34:05;;;;;;;;;4.00;3.50;;;;;20.66;52.86;101847.25;5059892;28;45418;-64
2022/06/10 01:36:44;;;;;;;;;4.25;4.25;;;;;20.65;52.98;101842.88;5061151;28;45247;-64
2022/06/10 01:39:27;;;;;;;;;2.00;2.00;;;;;20.64;53.00;101843.84;5060884;28;46219;-64
2022/06/10 01:42:28;;;;;;;;;5.25;3.75;;;;;20.63;52.97;101847.50;5061168;28;45258;-65
2022/06/10 01:45:28;;;;;;;;;6.25;4.00;;;;;20.62;53.03;101840.47;5026070;28;45246;-65
2022/06/10 01:48:05;;;;;;;;;4.00;4.00;;;;;20.62;53.06;101840.47;5060802;27;45652;-65
2022/06/10 01:50:50;;;;;;;;;4.25;2.25;;;;;20.62;53.24;101846.66;5060661;28;46419;-64
2022/06/10 01:53:46;;;;;;;;;2.25;1.50;;;;;20.63;52.90;101842.16;5060716;28;45284;-64
2022/06/10 01:56:35;;;;;;;;;2.75;2.25;;;;;20.63;53.21;101850.19;5049089;28;45346;-64
2022/06/10 01:59:15;;;;;;;;;4.00;3.50;;;;;20.61;53.02;101852.97;5060377;28;45449;-65
2022/06/10 02:01:48;;;;;;;;;5.25;4.50;;;;;20.60;53.00;101848.59;5060378;28;45520;-64
2022/06/10 02:04:30;;;;;;;;;4.25;3.25;;;;;20.58;53.01;101853.25;5060537;28;45364;-64
2022/06/10 02:07:04;;;;;;;;;5.00;2.25;;;;;20.56;52.92;101855.19;5060547;28;45353;-64
2022/06/10 02:09:39;;;;;;;;;4.25;3.00;;;;;20.55;53.17;101848.16;5060618;28;45319;-64
2022/06/10 02:12:12;;;;;;;;;5.75;3.75;;;;;20.55;53.27;101850.84;5060024;28;45472;-64
2022/06/10 02:14:49;;;;;;;;;8.75;2.50;;;;;20.54;53.04;101851.81;5060630;28;45342;-64
2022/06/10 02:17:16;;;;;;;;;5.00;3.00;;;;;20.51;53.33;101857.41;5060661;28;45189;-64
2022/06/10 02:19:53;;;;;;;;;4.75;3.00;;;;;20.52;53.26;101859.09;5060552;28;45321;-64
2022/06/10 02:22:39;;;;;;;;;5.50;3.50;;;;;20.48;53.24;101852.31;5060476;28;46080;-64
2022/06/10 02:25:05;;;;;;;;;5.00;3.00;;;;;20.47;53.08;101849.78;5060232;28;45429;-64
2022/06/10 02:27:40;;;;;;;;;4.75;3.25;;;;;20.46;53.05;101851.59;5062459;28;45317;-64
2022/06/10 02:30:10;;;;;;;;;4.50;2.75;;;;;20.46;52.74;101848.06;5064195;28;45301;-64
2022/06/10 02:32:38;;;;;;;;;6.25;3.25;;;;;20.46;53.21;101845.38;5063702;28;46074;-64
2022/06/10 02:35:07;;;;;;;;;5.00;3.50;;;;;20.44;53.38;101848.19;5063926;28;45423;-64
2022/06/10 02:37:42;;;;;;;;;6.00;4.00;;;;;20.43;53.16;101859.00;5063879;28;45350;-64
2022/06/10 02:40:26;;;;;;;;;4.00;3.00;;;;;20.40;53.40;101865.47;5063891;28;45403;-64
2022/06/10 02:43:03;;;;;;;;;3.75;3.00;;;;;20.39;53.05;101855.72;5063680;28;45340;-64
2022/06/10 02:45:37;;;;;;;;;3.25;3.25;;;;;20.39;53.20;101858.41;5063620;28;45401;-64
2022/06/10 02:48:20;;;;;;;;;2.00;2.00;;;;;20.38;53.04;101867.41;5063797;28;45449;-64
2022/06/10 02:50:46;;;;;;;;;4.25;4.25;;;;;20.35;53.23;101865.81;5063707;28;45408;-64
2022/06/10 02:53:13;;;;;;;;;6.25;3.00;;;;;20.31;53.24;101863.53;5063541;28;45921;-64
2022/06/10 02:55:39;;;;;;;;;3.50;3.00;;;;;20.31;53.50;101867.06;5063443;28;45302;-64
2022/06/10 03:01:20;;;;;;;;;3.50;2.75;;;;;20.28;53.41;101869.13;5063610;28;45237;-64
2022/06/10 03:04:13;;;;;;;;;4.25;4.25;;;;;20.26;53.59;101873.75;5061663;28;46401;-64
2022/06/10 03:07:00;;;;;;;;;5.00;3.00;;;;;20.25;53.62;101880.09;5063158;28;45252;-64
2022/06/10 03:09:38;;;;;;;;;4.75;3.00;;;;;20.21;53.41;101868.78;5063307;28;45467;-64
2022/06/10 03:12:21;;;;;;;;;4.00;4.00;;;;;20.20;53.31;101876.94;5062991;28;45284;-64
2022/06/10 03:15:38;;;;;;;;;6.00;4.00;;;;;20.16;53.76;101876.34;5063093;28;45252;-64
2022/06/10 03:18:07;;;;;;;;;7.50;4.25;;;;;20.13;53.74;101871.22;5059850;28;45536;-64
2022/06/10 03:21:00;;;;;;;;;8.50;4.00;;;;;20.11;53.73;101865.16;5063289;28;45358;-64
2022/06/10 03:23:47;;;;;;;;;5.00;4.75;;;;;20.08;53.78;101868.09;5063030;28;45554;-64
2022/06/10 03:26:32;;;;;;;;;5.00;4.00;;;;;20.07;53.86;101875.28;5062828;28;45256;-64
2022/06/10 03:29:09;;;;;;;;;4.25;4.25;;;;;20.05;53.72;101866.50;5062579;28;45253;-64
2022/06/10 03:31:40;;;;;;;;;3.25;2.00;;;;;20.03;53.64;101879.16;5063001;28;45414;-64
2022/06/10 03:34:32;;;;;;;;;6.50;4.00;;;;;20.00;54.06;101878.56;5062957;28;45397;-64
2022/06/10 03:37:00;;;;;;;;;6.00;4.00;;;;;19.96;53.96;101883.31;5062830;28;46263;-65
2022/06/10 03:39:27;;;;;;;;;5.00;4.75;;;;;19.95;53.93;101886.09;5061453;28;45389;-65
2022/06/10 03:42:10;;;;;;;;;6.50;5.00;;;;;19.94;54.03;101879.06;5063175;28;45260;-65
2022/06/10 03:44:37;;;;;;;;;4.25;2.75;;;;;19.95;53.86;101880.75;5062754;28;45644;-66
2022/06/10 03:47:04;;;;;;;;;4.75;3.00;;;;;19.92;54.09;101878.34;5061228;28;47000;-65
2022/06/10 03:49:38;;;;;;;;;4.50;2.00;;;;;19.92;53.90;101875.66;5062553;28;45230;-65
2022/06/10 03:52:04;;;;;;;;;5.00;4.00;;;;;19.90;53.96;101880.28;5062556;28;45307;-65
2022/06/10 03:54:30;;;;;;;;;6.75;6.75;;;;;19.89;53.79;101874.06;5062832;28;45227;-65
2022/06/10 03:56:55;;;;;;;;;6.00;4.00;;;;;19.89;53.85;101879.41;5061927;28;45205;-65
2022/06/10 03:59:21;;;;;;;;;8.00;5.00;;;;;19.89;54.28;101881.25;5062809;28;45207;-65
2022/06/10 04:01:46;;;;;;;;;5.25;5.00;;;;;19.87;54.21;101888.56;5062427;28;45288;-64
2022/06/10 04:04:12;;;;;;;;;5.50;4.00;;;;;19.83;54.05;101887.97;5062870;28;45215;-65
2022/06/10 04:06:38;;;;;;;;;7.75;3.50;;;;;19.83;54.59;101887.97;5062253;28;45168;-65
2022/06/10 04:09:04;;;;;;;;;7.25;3.25;;;;;19.83;54.30;101890.63;5061251;28;45170;-65
2022/06/10 04:11:29;;;;;;;;;5.50;5.50;;;;;19.85;54.37;101895.84;5062322;28;45322;-65
2022/06/10 04:13:55;;;;;;;;;6.00;5.00;;;;;19.85;54.79;101893.19;5062312;28;45384;-65
2022/06/10 04:16:20;;;;;;;;;5.00;3.75;;;;;19.83;54.80;101900.44;5062167;28;45407;-65
2022/06/10 04:18:46;;;;;;;;;5.50;4.50;;;;;19.83;54.60;101903.13;5062220;28;45464;-65
2022/06/10 04:21:11;;;;;;;;;6.00;3.00;;;;;19.82;54.47;101904.09;5060798;28;45510;-65
2022/06/10 04:23:37;;;;;;;;;5.00;3.00;;;;;19.79;54.76;101899.88;5062618;28;45310;-65
2022/06/10 04:26:02;;;;;;;;;5.25;3.25;;;;;19.75;54.73;101904.63;5061420;28;45825;-65
2022/06/10 04:28:28;;;;;;;;;4.75;4.00;;;;;19.75;55.10;101893.91;5061951;28;45493;-65
2022/06/10 04:30:55;;;;;;;;;3.50;3.00;;;;;19.75;55.21;101912.63;5061959;28;45351;-65
2022/06/10 04:33:21;;;;;;;;;4.25;3.25;;;;;19.78;55.28;101907.03;5062051;28;45379;-65
2022/06/10 04:35:49;;;;;;;;;7.00;4.25;;;;;19.79;54.85;101907.88;5061772;28;45418;-65
2022/06/10 04:38:16;;;;;;;;;4.50;3.25;;;;;19.79;55.00;101906.06;5061931;28;45439;-65
2022/06/10 04:40:42;;;;;;;;;4.00;4.00;;;;;19.82;55.29;101907.63;5062219;28;45345;-66
2022/06/10 04:43:09;;;;;;;;;5.25;5.00;;;;;19.83;54.91;101905.81;5061868;28;45471;-65
2022/06/10 04:45:45;;;;;;;;;6.00;4.50;;;;;19.84;55.16;101911.06;5061811;28;45204;-65
2022/06/10 04:48:12;;;;;;;;;4.25;4.00;;;;;19.85;54.89;101911.91;5061700;28;45230;-65
2022/06/10 04:50:38;;;;;;;;;6.00;4.25;;;;;19.86;55.14;101916.28;5061078;28;45465;-65
2022/06/10 04:53:04;;;;;;;;;5.50;4.25;;;;;19.89;55.25;101911.50;5061716;28;45219;-65
2022/06/10 04:55:29;;;;;;;;;3.00;2.25;;;;;19.87;55.29;101913.47;5061426;28;46264;-65
2022/06/10 04:57:55;;;;;;;;;8.75;4.50;;;;;19.86;55.27;101918.94;5061509;28;45287;-66
2022/06/10 05:00:34;;;;;;;;;5.00;3.00;;;;;19.83;55.34;101909.34;5061629;28;45358;-65
2022/06/10 05:03:01;;;;;;;;;7.00;4.50;;;;;19.84;55.59;101915.56;5061369;28;45224;-65
2022/06/10 05:05:26;;;;;;;;;5.50;3.75;;;;;19.82;55.42;101910.31;5061283;28;45452;-65
2022/06/10 05:07:52;;;;;;;;;4.00;3.50;;;;;19.79;55.28;101914.06;5061407;28;45247;-65
2022/06/10 05:10:18;;;;;;;;;6.00;3.50;;;;;19.79;55.82;101914.06;5061382;28;45181;-65
2022/06/10 05:12:47;;;;;;;;;5.00;4.00;;;;;19.77;55.79;101916.03;5060012;28;45481;-66
2022/06/10 05:15:15;;;;;;;;;6.25;3.50;;;;;19.76;55.97;101911.66;5061041;28;46216;-65
2022/06/10 05:17:41;;;;;;;;;5.50;4.25;;;;;19.78;55.57;101915.06;5061118;28;45178;-65
2022/06/10 05:20:09;;;;;;;;;5.00;4.50;;;;;19.79;55.98;101906.06;5061195;28;45459;-65
2022/06/10 05:22:34;;;;;;;;;6.00;4.75;;;;;19.83;56.19;101909.34;5061206;28;45518;-65
2022/06/10 05:24:59;;;;;;;;;4.75;3.00;;;;;19.86;56.07;101909.09;5060697;28;45812;-65
2022/06/10 05:27:25;;;;;;;;;9.00;3.25;;;;;19.91;56.01;101914.09;5061036;28;45474;-65
2022/06/10 05:29:51;;;;;;;;;5.00;3.00;;;;;19.96;55.93;101915.41;5061224;28;45515;-65
2022/06/10 05:32:17;;;;;;;;;4.25;4.00;;;;;20.02;56.28;101909.56;5066792;28;45291;-65
2022/06/10 05:34:46;;;;;;;;;4.00;3.00;;;;;20.11;56.00;101926.69;5060900;28;46332;-65
2022/06/10 05:37:20;;;;;;;;;7.25;3.00;;;;;20.19;56.11;101921.56;5065745;28;45252;-63
2022/06/10 05:39:46;;;;;;;;;7.00;4.00;;;;;20.29;56.32;101916.31;5060987;28;45298;-64
2022/06/10 05:42:13;;;;;;;;;6.00;4.00;;;;;20.38;55.85;101922.75;5064065;28;46262;-64
2022/06/10 05:44:42;;;;;;;;;2.75;2.75;;;;;20.43;56.19;101923.22;5060841;28;46038;-64
2022/06/10 05:47:14;;;;;;;;;3.00;2.00;;;;;20.47;55.76;101924.72;5063284;28;45296;-64
2022/06/10 05:49:42;;;;;;;;;7.75;2.75;;;;;20.50;56.25;101927.97;5060932;28;45438;-64
2022/06/10 05:52:12;;;;;;;;;5.00;4.00;;;;;20.52;55.92;101931.38;5060860;28;45319;-64
2022/06/10 05:54:45;;;;;;;;;7.00;4.00;;;;;20.52;55.98;101931.38;5060656;28;45391;-64
2022/06/10 05:57:11;;;;;;;;;3.00;2.00;;;;;20.53;55.75;101937.56;5060223;28;45291;-64
2022/06/10 05:59:37;;;;;;;;;3.00;3.00;;;;;20.57;55.67;101944.41;5059457;28;45355;-64
2022/06/10 06:02:08;;;;;;;;;3.00;2.50;;;;;20.58;55.82;101941.59;5061989;28;45415;-64
2022/06/10 06:04:33;;;;;;;;;6.75;4.00;;;;;20.63;55.93;101947.41;5064362;28;45969;-64
2022/06/10 06:06:59;;;;;;;;;18.25;16.00;;;;;20.70;55.87;101954.97;5064087;28;45294;-64
2022/06/10 06:09:26;;;;;;;;;4.00;4.00;;;;;20.75;55.81;101961.59;5064453;28;45247;-64
2022/06/10 06:11:54;;;;;;;;;6.25;4.25;;;;;20.79;55.95;101957.72;5063597;28;45227;-64
2022/06/10 06:14:20;;;;;;;;;3.00;3.00;;;;;20.82;55.78;101961.97;5073356;27;46541;-65
2022/06/10 06:16:52;;;;;;;;;2.75;2.75;;;;;20.83;55.96;101969.84;5064062;28;45450;-64
2022/06/10 06:19:18;;;;;;;;;3.00;2.50;;;;;20.86;55.76;101964.25;5070093;28;45256;-63
2022/06/10 06:21:44;;;;;;;;;7.50;4.50;;;;;20.90;55.71;101962.16;5063888;28;45478;-63
2022/06/10 06:24:09;;;;;;;;;4.75;3.50;;;;;20.95;55.76;101961.78;5063527;28;45447;-60
2022/06/10 06:26:35;;;;;;;;;5.25;4.75;;;;;20.98;55.66;101967.72;5063735;28;45324;-63
2022/06/10 06:29:00;;;;;;;;;21.00;17.50;;;;;21.02;55.56;101963.84;5063505;28;45367;-64
2022/06/10 06:31:26;;;;;;;;;7.75;3.75;;;;;21.06;55.63;101964.41;5063868;28;45247;-64
2022/06/10 06:33:51;;;;;;;;;5.75;4.50;;;;;21.11;55.60;101970.25;5063579;28;45416;-63
2022/06/10 06:36:23;;;;;;;;;2.25;1.25;;;;;21.14;55.65;101973.50;5063890;28;45333;-64
2022/06/10 06:38:49;;;;;;;;;4.25;3.50;;;;;21.15;55.53;101969.84;5063849;28;45232;-64
2022/06/10 06:41:16;;;;;;;;;6.00;3.50;;;;;21.19;55.41;101967.75;5063558;28;45426;-63
2022/06/10 06:43:42;;;;;;;;;3.75;3.00;;;;;21.21;55.43;101965.78;5063497;28;45513;-64
2022/06/10 06:46:11;;;;;;;;;5.25;4.25;;;;;21.23;55.41;101968.34;5063457;28;45256;-63
2022/06/10 06:48:37;;;;;;;;;4.00;2.50;;;;;21.25;55.45;101966.38;5063665;28;45232;-64
2022/06/10 06:51:02;;;;;;;;;4.25;1.75;;;;;21.29;55.29;101966.03;5063602;28;45185;-64
2022/06/10 06:53:28;;;;;;;;;3.25;2.00;;;;;21.29;55.51;101963.34;5063366;28;45303;-64
2022/06/10 06:55:53;;;;;;;;;6.50;3.75;;;;;21.35;55.63;101964.66;5063514;28;45334;-63
2022/06/10 06:58:19;;;;;;;;;12.25;3.50;;;;;21.42;55.37;101965.84;5063566;28;45280;-63
2022/06/10 07:00:45;;;;;;;;;5.50;4.50;;;;;21.45;55.38;101968.25;5063531;28;45563;-63
2022/06/10 07:03:11;;;;;;;;;6.00;4.00;;;;;21.44;55.36;101958.50;5063240;28;45669;-63
2022/06/10 07:05:36;;;;;;;;;2.50;1.75;;;;;21.47;55.40;101963.59;5063165;28;45327;-63
2022/06/10 07:08:03;;;;;;;;;6.00;4.25;;;;;21.53;55.26;101967.59;5063267;28;45474;-63
2022/06/10 07:10:29;;;;;;;;;5.50;3.25;;;;;21.57;55.30;101966.34;5063304;28;45454;-64
2022/06/10 07:12:55;;;;;;;;;5.75;4.00;;;;;21.59;55.31;101965.22;5062600;28;45514;-64
2022/06/10 07:15:22;;;;;;;;;14.25;11.25;;;;;21.60;55.02;101958.88;5063117;28;45219;-63
2022/06/10 07:17:48;;;;;;;;;6.25;4.25;;;;;21.67;55.01;101967.25;5063313;28;45292;-63
2022/06/10 07:20:21;;;;;;;;;6.00;5.00;;;;;21.74;55.27;101955.84;5063080;28;45612;-63
2022/06/10 07:22:47;;;;;;;;;5.50;3.75;;;;;21.79;55.16;101968.00;5060470;28;45670;-63
2022/06/10 07:25:14;;;;;;;;;8.75;4.75;;;;;21.80;54.99;101967.88;5060296;28;45433;-63
2022/06/10 07:27:40;;;;;;;;;3.00;1.00;;;;;21.79;54.75;101963.47;5061534;28;45431;-63
2022/06/10 07:30:08;;;;;;;;;1.75;0.75;;;;;21.79;55.05;101963.47;5062423;28;45492;-63
2022/06/10 07:32:33;;;;;;;;;5.75;2.75;;;;;21.78;54.37;101967.16;5062127;28;46367;-63
2022/06/10 07:34:59;;;;;;;;;1.75;0.75;;;;;21.79;54.35;101974.22;5062493;28;45386;-63
2022/06/10 07:37:24;;;;;;;;;3.00;1.00;;;;;21.82;54.35;101970.44;5061164;28;45332;-63
2022/06/10 07:39:51;;;;;;;;;2.50;1.25;;;;;21.79;54.13;101974.22;5062173;28;45398;-63
2022/06/10 07:42:17;;;;;;;;;0.75;0.75;;;;;21.82;53.80;101978.47;5061878;28;46474;-64
2022/06/10 07:44:43;;;;;;;;;2.50;1.25;;;;;21.87;53.97;101978.91;5062440;28;45339;-63
2022/06/10 07:47:12;;;;;;;;;1.75;1.75;;;;;21.90;54.16;101979.50;5062492;28;45377;-63
2022/06/10 07:49:38;;;;;;;;;1.00;1.00;;;;;21.90;53.93;101982.19;5062604;28;45429;-63
2022/06/10 07:52:05;;;;;;;;;2.00;1.25;;;;;21.91;53.39;101983.03;5062088;28;45406;-63
2022/06/10 07:54:31;;;;;;;;;3.25;2.50;;;;;21.96;53.74;101980.78;5062441;28;45229;-63
2022/06/10 07:56:57;;;;;;;;;3.75;1.75;;;;;22.04;53.71;101986.34;5062165;28;45239;-63
2022/06/10 07:59:22;;;;;;;;;2.75;2.00;;;;;22.11;53.33;101981.31;5062502;28;45355;-63
2022/06/10 08:01:48;;;;;;;;;2.50;1.00;;;;;22.20;53.62;101978.69;5062195;28;46125;-63
2022/06/10 08:04:14;;;;;;;;;3.00;2.00;;;;;22.25;53.31;101971.03;5062818;28;45237;-63
2022/06/10 08:06:43;;;;;;;;;2.00;2.00;;;;;22.31;53.25;101971.50;5062557;28;45338;-66
2022/06/10 08:09:10;;;;;;;;;1.50;1.50;;;;;22.37;53.16;101974.47;5062501;28;45273;-63
2022/06/10 08:11:37;;;;;;;;;0.75;0.75;;;;;22.39;53.04;101975.19;5062162;28;45232;-64
2022/06/10 08:14:03;;;;;;;;;1.25;0.00;;;;;22.39;53.18;101972.50;5062249;28;45218;-63
2022/06/10 08:16:28;;;;;;;;;3.00;1.00;;;;;22.43;52.68;101967.69;5062190;28;45272;-64
2022/06/10 08:18:54;;;;;;;;;3.00;2.00;;;;;22.46;52.66;101956.69;5062478;28;45528;-64
2022/06/10 08:24:05;;;;;;;;;2.00;0.75;;;;;22.49;52.82;101964.47;5061364;28;45224;-64
2022/06/10 08:26:31;;;;;;;;;1.00;0.75;;;;;22.48;52.62;101965.44;5061904;28;45378;-64
2022/06/10 08:28:59;;;;;;;;;1.00;0.75;;;;;22.46;52.72;101964.75;5061737;28;45413;-64
2022/06/10 08:31:25;;;;;;;;;3.25;0.75;;;;;22.48;52.26;101954.72;5061954;28;46045;-64
2022/06/10 08:33:50;;;;;;;;;2.75;1.75;;;;;22.47;52.59;101955.69;5061979;28;45218;-64
2022/06/10 08:36:16;;;;;;;;;3.75;0.75;;;;;22.49;52.53;101951.88;5062164;28;45145;-64
2022/06/10 08:38:42;;;;;;;;;0.75;0.75;;;;;22.54;52.16;101949.63;5062229;28;45271;-64
2022/06/10 08:41:19;;;;;;;;;3.00;1.50;;;;;22.61;52.14;101949.09;5061977;28;45223;-64
2022/06/10 08:43:55;;;;;;;;;3.25;0.75;;;;;22.66;52.34;101953.03;5061723;28;45496;-64
2022/06/10 08:46:54;;;;;;;;;0.00;0.00;;;;;22.72;52.54;101955.16;5062171;28;45398;-64
2022/06/10 08:50:03;;;;;;;;;0.00;0.00;;;;;22.77;51.74;101947.53;5061788;28;45258;-64
2022/06/10 08:52:50;;;;;;;;;0.75;0.75;;;;;22.78;51.93;101949.22;5061726;28;45334;-64
2022/06/10 08:55:47;;;;;;;;;1.75;0.75;;;;;22.83;51.90;101955.03;5061322;28;45330;-65
2022/06/10 08:58:28;;;;;;;;;0.50;0.50;;;;;22.89;51.45;101955.47;5052799;28;45529;-65
2022/06/10 09:00:58;;;;;;;;;1.00;1.00;;;;;22.90;51.05;101952.66;5061506;28;45272;-64
2022/06/10 09:03:34;;;;;;;;;1.00;0.75;;;;;22.89;51.34;101952.78;5059757;28;45306;-63
2022/06/10 09:06:05;;;;;;;;;4.50;1.00;;;;;22.87;51.33;101952.09;5061494;28;45248;-64
2022/06/10 09:08:43;;;;;;;;;3.50;2.25;;;;;22.96;50.96;101952.09;5061433;28;45326;-64
2022/06/10 09:11:19;;;;;;;;;3.00;2.00;;;;;23.06;50.62;101947.53;5061701;28;45536;-64
2022/06/10 09:14:24;;;;;;;;;0.50;0.00;;;;;23.14;50.73;101946.81;5060972;28;45244;-64
2022/06/10 09:17:05;;;;;;;;;1.25;1.25;;;;;23.15;50.57;101951.25;5061297;28;45391;-64
2022/06/10 09:19:49;;;;;;;;;0.00;0.00;;;;;23.18;50.80;101942.88;5061498;28;45445;-64
2022/06/10 09:22:26;;;;;;;;;1.00;1.00;;;;;23.25;50.62;101941.31;5061472;28;45398;-64
2022/06/10 09:25:10;;;;;;;;;1.75;0.00;;;;;23.31;50.35;101948.81;5061000;28;45362;-64
2022/06/10 09:27:44;;;;;;;;;2.75;1.75;;;;;23.32;50.33;101947.81;5060938;28;45319;-64
2022/06/10 09:30:13;;;;;;;;;19.50;17.25;;;;;23.21;49.90;101947.94;5061106;28;45502;-64
2022/06/10 09:32:51;;;;;;;;;2.00;1.00;;;;;23.21;49.74;101941.72;5061298;28;45573;-64
2022/06/10 09:35:36;;;;;;;;;2.00;2.00;;;;;23.32;49.77;101942.44;5059378;28;46515;-64
2022/06/10 09:38:20;;;;;;;;;4.00;4.00;;;;;23.38;49.63;101944.56;5060513;28;45224;-64
2022/06/10 09:41:08;;;;;;;;;2.00;1.00;;;;;23.45;49.63;101946.63;5061219;28;45275;-64
2022/06/10 09:43:43;;;;;;;;;2.00;1.00;;;;;23.51;49.43;101946.91;5060737;28;45559;-64
2022/06/10 09:46:31;;;;;;;;;3.00;1.00;;;;;23.51;49.51;101954.97;5060607;28;46356;-64
2022/06/10 09:49:19;;;;;;;;;2.50;1.00;;;;;23.56;49.66;101955.41;5060614;28;45318;-64
2022/06/10 09:52:11;;;;;;;;;1.75;1.00;;;;;23.65;49.68;101954.56;5061033;28;45162;-64
2022/06/10 09:54:55;;;;;;;;;1.00;1.00;;;;;23.76;49.67;101955.34;5060860;28;45671;-64
2022/06/10 09:57:25;;;;;;;;;2.50;1.00;;;;;23.77;49.20;101957.88;5060235;28;46306;-64
2022/06/10 10:00:18;;;;;;;;;2.00;2.00;;;;;23.82;49.63;101955.63;5060732;28;45280;-64
2022/06/10 10:03:21;;;;;;;;;2.25;2.00;;;;;23.92;49.57;101951.03;5060874;28;45249;-64
2022/06/10 10:06:17;;;;;;;;;1.75;1.00;;;;;24.07;48.90;101958.63;5060958;28;45629;-64
2022/06/10 10:09:07;;;;;;;;;1.50;1.50;;;;;24.17;49.51;101959.41;5060093;28;46035;-64
2022/06/10 10:12:02;;;;;;;;;0.50;0.50;;;;;24.28;49.29;101959.22;5060333;28;45340;-64
2022/06/10 10:14:39;;;;;;;;;0.00;0.00;;;;;24.39;49.29;101959.03;5060692;28;45228;-64
2022/06/10 10:17:42;;;;;;;;;4.00;4.00;;;;;24.49;49.00;101959.00;5060786;28;45335;-64
2022/06/10 10:20:35;;;;;;;;;3.00;0.75;;;;;24.52;49.38;101961.38;5060408;28;45273;-63
2022/06/10 10:23:18;;;;;;;;;9.75;8.25;;;;;24.40;49.20;101963.41;5060365;28;45391;-64
2022/06/10 10:25:46;;;;;;;;;8.25;7.75;;;;;24.24;48.92;101965.91;5060512;28;45314;-64
2022/06/10 10:28:24;;;;;;;;;1.00;1.00;;;;;24.10;48.92;101963.72;5060119;28;45289;-64
2022/06/10 10:31:10;;;;;;;;;2.00;2.00;;;;;24.02;48.77;101953.69;5060172;28;45314;-64
2022/06/10 10:33:35;;;;;;;;;1.00;1.00;;;;;24.04;49.44;101949.00;5060502;28;45388;-64
2022/06/10 10:36:10;;;;;;;;;1.50;1.00;;;;;24.08;49.45;101958.47;5060594;28;45228;-64
2022/06/10 10:38:43;;;;;;;;;5.50;4.25;;;;;24.19;49.52;101947.50;5060604;28;45330;-64
2022/06/10 10:41:38;;;;;;;;;7.75;4.25;;;;;24.38;49.03;101949.25;5060106;28;46342;-64
2022/06/10 10:44:20;;;;;;;;;3.75;2.75;;;;;24.45;49.37;101952.19;5054666;28;45228;-64
2022/06/10 10:47:10;;;;;;;;;1.50;1.50;;;;;24.35;49.02;101946.03;5060546;28;45264;-64
2022/06/10 10:50:06;;;;;;;;;5.25;2.50;;;;;24.30;48.97;101948.28;5063671;28;45314;-64
2022/06/10 10:52:34;;;;;;;;;14.50;13.75;;;;;24.22;49.55;101951.75;5055091;28;45425;-64
2022/06/10 10:55:13;;;;;;;;;1.50;1.50;;;;;24.18;49.13;101951.22;5063295;28;45263;-64
2022/06/10 10:58:04;;;;;;;;;8.75;5.00;;;;;24.22;49.63;101959.81;5063486;28;45197;-64
2022/06/10 11:00:41;;;;;;;;;22.25;21.50;;;;;24.30;49.58;101942.91;5063176;28;45554;-64
2022/06/10 11:03:41;;;;;;;;;4.00;1.75;;;;;24.29;49.48;101944.75;5063924;28;46185;-64
2022/06/10 11:06:30;;;;;;;;;15.50;13.50;;;;;24.21;50.04;101955.44;5073168;28;45492;-65
2022/06/10 11:09:02;;;;;;;;;6.50;5.25;;;;;24.21;49.58;101950.91;5070455;28;45215;-67
2022/06/10 11:11:35;;;;;;;;;2.00;2.00;;;;;24.40;50.33;101946.41;5073314;28;45473;-65
2022/06/10 11:14:32;;;;;;;;;9.25;6.75;;;;;24.44;49.74;101951.34;5070656;28;46474;-63
2022/06/10 11:17:03;;;;;;;;;3.75;2.00;;;;;24.43;50.18;101957.75;5070827;28;45367;-67
2022/06/10 11:19:32;;;;;;;;;1.25;1.25;;;;;24.42;50.15;101953.38;5070005;28;45384;-69
2022/06/10 11:22:01;;;;;;;;;3.25;3.25;;;;;24.55;50.23;101950.28;5072171;28;45330;-64
2022/06/10 11:24:35;;;;;;;;;3.50;2.00;;;;;24.53;50.21;101957.69;5071973;28;45509;-68
2022/06/10 11:27:30;;;;;;;;;3.25;2.00;;;;;24.62;50.21;101958.59;5069220;28;45466;-66
2022/06/10 11:30:00;;;;;;;;;4.00;2.50;;;;;24.63;49.59;101957.59;5070487;28;45232;-65
2022/06/10 11:32:29;;;;;;;;;3.75;3.75;;;;;24.56;49.76;101953.81;5070897;28;45451;-67
2022/06/10 11:35:02;;;;;;;;;2.00;2.00;;;;;24.58;50.03;101949.16;5068574;28;46089;-66
2022/06/10 11:37:40;;;;;;;;;4.00;1.75;;;;;24.52;49.80;101945.22;5071336;28;45247;-66
2022/06/10 11:40:23;;;;;;;;;2.00;2.00;;;;;24.62;49.53;101935.19;5071718;27;45457;-69
2022/06/10 11:43:03;;;;;;;;;3.75;2.00;;;;;24.74;49.91;101946.63;5070590;28;45530;-64
2022/06/10 11:45:39;;;;;;;;;1.00;1.00;;;;;24.75;49.55;101941.06;5069639;28;45355;-68
2022/06/10 11:48:22;;;;;;;;;1.50;1.50;;;;;24.84;49.95;101939.28;5071031;28;45361;-66
2022/06/10 11:50:59;;;;;;;;;6.50;2.00;;;;;24.96;49.33;101942.56;5073287;28;45440;-64
2022/06/10 11:53:43;;;;;;;;;2.25;2.00;;;;;25.04;49.68;101940.84;5070415;28;45703;-66
2022/06/10 12:01:55;;;;;;;;;25.75;23.25;;;;;25.08;49.74;101937.84;5069412;28;45279;-69
2022/06/10 12:04:34;;;;;;;;;11.25;7.75;;;;;25.13;49.09;101927.44;5070990;28;45605;-63
2022/06/10 12:07:06;;;;;;;;;14.00;11.75;;;;;25.09;48.97;101929.59;5068087;28;45355;-65